Time;durP1;ratioP1;P1;durP2;ratioP2;P2;SDS_P1;SDS_P2;PMS_P1;PMS_P2;Temp;Humidity;BMP_temperature;BMP_pressure;BME280_temperature;BME280_humidity;BME280_pressure;Samples;Min_cycle;Max_cycle;Signal;HPM_P1;HPM_P2
2021/09/03 00:02:13;;;;;;;19.27;14.07;;;14.70;99.90;;;;;;5059300;28;20504;-73
2021/09/03 00:04:39;;;;;;;17.33;14.60;;;14.70;99.90;;;;;;5058897;28;20631;-73
2021/09/03 00:07:05;;;;;;;17.90;14.53;;;14.70;99.90;;;;;;5058871;28;20568;-73
2021/09/03 00:09:30;;;;;;;17.30;14.10;;;14.70;99.90;;;;;;5058770;28;20452;-73
2021/09/03 00:11:56;;;;;;;16.17;12.20;;;14.60;99.90;;;;;;5058353;28;20202;-73
2021/09/03 00:14:21;;;;;;;16.70;14.40;;;14.60;99.90;;;;;;5058969;28;20167;-74
2021/09/03 00:16:47;;;;;;;15.50;13.17;;;14.60;99.90;;;;;;5058594;28;20250;-73
2021/09/03 00:19:12;;;;;;;14.40;12.90;;;14.60;99.90;;;;;;5059579;28;20177;-73
2021/09/03 00:21:38;;;;;;;16.07;13.70;;;14.50;99.90;;;;;;5059218;28;20194;-73
2021/09/03 00:24:04;;;;;;;14.40;12.57;;;14.60;99.90;;;;;;5058804;28;20174;-73
2021/09/03 00:26:29;;;;;;;15.83;14.13;;;14.50;99.90;;;;;;5058563;28;20225;-73
2021/09/03 00:28:55;;;;;;;15.93;13.50;;;14.50;99.90;;;;;;5040309;28;20222;-73
2021/09/03 00:31:20;;;;;;;15.27;13.70;;;14.50;99.90;;;;;;5058912;28;20182;-73
2021/09/03 00:33:46;;;;;;;14.70;13.20;;;14.50;99.90;;;;;;5058595;28;20628;-73
2021/09/03 00:36:11;;;;;;;16.47;14.47;;;14.50;99.90;;;;;;5059270;28;20181;-73
2021/09/03 00:38:37;;;;;;;16.03;13.23;;;14.50;99.90;;;;;;5065422;28;20260;-75
2021/09/03 00:41:03;;;;;;;15.50;12.80;;;14.40;99.90;;;;;;5075841;28;20233;-73
2021/09/03 00:43:29;;;;;;;15.77;14.07;;;14.40;99.90;;;;;;5074608;28;20181;-75
2021/09/03 00:45:56;;;;;;;14.47;12.97;;;14.50;99.90;;;;;;5057194;28;20182;-74
2021/09/03 00:48:21;;;;;;;13.13;11.73;;;14.50;99.90;;;;;;5073942;28;20514;-73
2021/09/03 00:50:47;;;;;;;14.10;12.50;;;14.60;99.90;;;;;;5074419;28;20527;-74
2021/09/03 00:53:13;;;;;;;15.20;13.60;;;14.60;99.90;;;;;;5073894;28;20431;-74
2021/09/03 00:55:38;;;;;;;14.80;12.67;;;14.60;99.90;;;;;;5074500;28;20201;-74
2021/09/03 00:58:04;;;;;;;14.23;12.40;;;14.60;99.90;;;;;;5066690;28;20209;-72
2021/09/03 01:00:30;;;;;;;14.10;12.67;;;14.60;99.90;;;;;;5041810;28;20215;-73
2021/09/03 01:02:55;;;;;;;14.83;12.83;;;14.70;99.90;;;;;;5058033;28;20639;-73
2021/09/03 01:05:23;;;;;;;15.83;12.00;;;14.70;99.90;;;;;;5057780;28;20174;-73
2021/09/03 01:07:50;;;;;;;14.90;11.70;;;14.70;99.90;;;;;;5057930;28;20170;-73
2021/09/03 01:10:19;;;;;;;15.77;12.90;;;14.60;99.90;;;;;;5039605;28;20432;-73
2021/09/03 01:12:46;;;;;;;14.13;12.70;;;14.70;99.90;;;;;;5057440;28;20424;-73
2021/09/03 01:15:11;;;;;;;17.17;12.60;;;14.60;99.90;;;;;;5058369;28;20408;-73
2021/09/03 01:17:39;;;;;;;14.50;11.70;;;14.50;99.90;;;;;;5039995;28;20400;-73
2021/09/03 01:20:06;;;;;;;16.97;12.90;;;14.40;99.90;;;;;;5057053;28;20167;-74
2021/09/03 01:22:32;;;;;;;13.03;11.70;;;14.40;99.90;;;;;;5057522;28;20466;-73
2021/09/03 01:24:58;;;;;;;13.17;11.57;;;14.40;99.90;;;;;;5039649;28;20789;-73
2021/09/03 01:27:23;;;;;;;13.83;11.73;;;14.50;99.90;;;;;;5058101;28;20175;-72
2021/09/03 01:29:49;;;;;;;16.10;12.07;;;14.50;99.90;;;;;;5059262;28;20201;-73
2021/09/03 01:32:14;;;;;;;15.40;12.57;;;14.40;99.90;;;;;;5060223;28;20178;-72
2021/09/03 01:34:40;;;;;;;13.63;11.87;;;14.30;99.90;;;;;;5060064;28;20179;-73
2021/09/03 01:37:05;;;;;;;14.00;11.70;;;14.30;99.90;;;;;;5058883;28;20234;-73
2021/09/03 01:39:31;;;;;;;13.20;11.77;;;14.20;99.90;;;;;;5056941;28;20269;-73
2021/09/03 01:41:56;;;;;;;15.10;11.90;;;14.20;99.90;;;;;;5057077;28;20239;-73
2021/09/03 01:44:22;;;;;;;13.57;11.10;;;14.10;99.90;;;;;;5057339;28;20182;-73
2021/09/03 01:46:47;;;;;;;14.50;12.93;;;14.00;99.90;;;;;;5056670;28;20178;-73
2021/09/03 01:49:13;;;;;;;12.40;11.10;;;14.00;99.90;;;;;;5057518;28;20285;-73
2021/09/03 01:51:38;;;;;;;13.43;11.53;;;14.00;99.90;;;;;;5056257;28;20210;-73
2021/09/03 01:54:04;;;;;;;13.97;12.47;;;14.10;99.90;;;;;;5056371;28;20485;-74
2021/09/03 01:56:30;;;;;;;14.30;12.13;;;14.10;99.90;;;;;;5055006;28;20415;-74
2021/09/03 01:58:55;;;;;;;13.23;11.83;;;14.10;99.90;;;;;;5038338;28;20178;-73
2021/09/03 02:01:20;;;;;;;12.63;11.20;;;14.10;99.90;;;;;;5037161;28;20197;-73
2021/09/03 02:03:46;;;;;;;14.00;11.80;;;14.10;99.90;;;;;;5037386;28;20239;-74
2021/09/03 02:06:11;;;;;;;13.33;11.93;;;14.10;99.90;;;;;;5044115;28;20200;-72
2021/09/03 02:08:37;;;;;;;13.10;11.40;;;14.00;99.90;;;;;;5058108;28;20293;-72
2021/09/03 02:11:03;;;;;;;14.27;11.43;;;13.90;99.90;;;;;;5057250;28;20215;-73
2021/09/03 02:13:28;;;;;;;11.40;10.33;;;14.00;99.90;;;;;;5056736;28;20242;-72
2021/09/03 02:15:54;;;;;;;12.70;10.80;;;14.00;99.90;;;;;;5057629;28;20174;-72
2021/09/03 02:18:19;;;;;;;16.90;10.67;;;14.00;99.90;;;;;;5057547;28;20619;-73
2021/09/03 02:20:45;;;;;;;12.20;10.30;;;14.10;99.90;;;;;;5057059;28;20194;-72
2021/09/03 02:23:10;;;;;;;13.20;11.10;;;14.10;99.90;;;;;;5057049;28;20265;-72
2021/09/03 02:25:36;;;;;;;11.50;10.30;;;14.10;99.90;;;;;;5057965;28;20683;-71
2021/09/03 02:28:02;;;;;;;11.37;10.17;;;14.00;99.90;;;;;;5057714;28;20174;-73
2021/09/03 02:30:27;;;;;;;12.37;11.20;;;13.90;99.90;;;;;;5056508;28;20287;-72
2021/09/03 02:32:53;;;;;;;13.87;11.07;;;13.90;99.90;;;;;;5039243;28;20171;-72
2021/09/03 02:35:18;;;;;;;14.43;11.60;;;13.80;99.90;;;;;;5056638;28;20699;-72
2021/09/03 02:37:44;;;;;;;12.70;11.23;;;13.90;99.90;;;;;;5057515;28;20175;-73
2021/09/03 02:40:10;;;;;;;13.57;12.17;;;13.80;99.90;;;;;;5038887;28;20197;-73
2021/09/03 02:42:35;;;;;;;12.40;11.10;;;13.80;99.90;;;;;;5056743;28;20186;-73
2021/09/03 02:45:01;;;;;;;12.43;10.80;;;13.80;99.90;;;;;;5038133;28;20432;-73
2021/09/03 02:47:27;;;;;;;13.17;10.90;;;13.80;99.90;;;;;;5056147;28;20184;-73
2021/09/03 02:49:52;;;;;;;11.40;10.20;;;13.80;99.90;;;;;;5037804;28;20237;-73
2021/09/03 02:52:18;;;;;;;11.50;10.40;;;13.80;99.90;;;;;;5055061;28;20210;-73
2021/09/03 02:54:43;;;;;;;13.20;9.87;;;13.70;99.90;;;;;;5055644;28;20185;-73
2021/09/03 02:57:09;;;;;;;11.40;10.20;;;13.80;99.90;;;;;;5056410;28;20623;-73
2021/09/03 02:59:34;;;;;;;12.67;11.47;;;13.80;99.90;;;;;;5057051;28;20408;-73
2021/09/03 03:02:00;;;;;;;14.60;11.80;;;13.80;99.90;;;;;;5060296;28;20492;-73
2021/09/03 03:04:25;;;;;;;11.33;10.17;;;13.80;99.90;;;;;;5059034;28;20253;-74
2021/09/03 03:06:51;;;;;;;11.43;10.30;;;13.80;99.90;;;;;;5058298;28;20214;-74
2021/09/03 03:09:16;;;;;;;11.37;10.33;;;13.70;99.90;;;;;;5040150;28;20634;-73
2021/09/03 03:11:42;;;;;;;12.57;10.60;;;13.60;99.90;;;;;;5023177;28;20206;-74
2021/09/03 03:14:14;;;;;;;12.37;10.80;;;13.70;99.90;;;;;;4994560;28;20264;-71
2021/09/03 03:16:40;;;;;;;11.40;10.30;;;13.60;99.90;;;;;;4994897;28;20174;-72
2021/09/03 03:19:05;;;;;;;14.43;11.10;;;13.60;99.90;;;;;;5042931;28;20498;-72
2021/09/03 03:21:31;;;;;;;12.83;10.77;;;13.60;99.90;;;;;;5060143;28;20682;-73
2021/09/03 03:23:57;;;;;;;11.33;10.13;;;13.60;99.90;;;;;;5043664;28;20650;-73
2021/09/03 03:26:23;;;;;;;11.57;10.37;;;13.70;99.90;;;;;;5042843;28;20504;-73
2021/09/03 03:28:48;;;;;;;10.63;9.53;;;13.70;99.90;;;;;;5063801;28;20605;-73
2021/09/03 03:31:14;;;;;;;11.47;9.93;;;13.70;99.90;;;;;;5063020;28;20764;-73
2021/09/03 03:33:39;;;;;;;13.00;10.20;;;13.80;99.90;;;;;;5060542;28;20170;-73
2021/09/03 03:36:05;;;;;;;10.50;9.50;;;13.80;99.90;;;;;;5058855;28;20640;-74
2021/09/03 03:38:31;;;;;;;11.03;9.77;;;13.80;99.90;;;;;;5060866;28;20174;-73
2021/09/03 03:40:56;;;;;;;12.10;10.90;;;13.80;99.90;;;;;;5058494;28;20263;-73
2021/09/03 03:43:22;;;;;;;12.63;10.50;;;13.80;99.90;;;;;;5061272;28;20236;-74
2021/09/03 03:45:48;;;;;;;11.70;9.93;;;13.80;99.90;;;;;;5043337;28;20182;-73
2021/09/03 03:48:13;;;;;;;11.40;10.17;;;13.70;99.90;;;;;;5040809;28;20265;-73
2021/09/03 03:50:39;;;;;;;12.20;10.27;;;13.70;99.90;;;;;;5057802;28;20197;-73
2021/09/03 03:53:04;;;;;;;13.47;10.17;;;13.70;99.90;;;;;;5059487;28;20170;-73
2021/09/03 03:55:30;;;;;;;13.67;10.00;;;13.70;99.90;;;;;;5058398;28;20174;-74
2021/09/03 03:57:55;;;;;;;12.73;10.47;;;13.80;99.90;;;;;;5058865;28;20179;-73
2021/09/03 04:00:21;;;;;;;9.93;9.03;;;13.70;99.90;;;;;;5058470;28;20205;-73
2021/09/03 04:02:46;;;;;;;11.00;9.90;;;13.70;99.90;;;;;;5059716;28;20205;-73
2021/09/03 04:05:12;;;;;;;11.73;10.40;;;13.70;99.90;;;;;;5059743;28;20182;-73
2021/09/03 04:07:37;;;;;;;10.80;9.70;;;13.70;99.90;;;;;;5059345;28;20175;-73
2021/09/03 04:10:04;;;;;;;11.80;10.20;;;13.70;99.90;;;;;;5058520;28;20442;-73
2021/09/03 04:12:30;;;;;;;12.17;10.17;;;13.70;99.90;;;;;;5041741;28;20185;-73
2021/09/03 04:14:55;;;;;;;12.53;10.33;;;13.70;99.90;;;;;;5057868;28;20466;-73
2021/09/03 04:17:21;;;;;;;12.10;10.90;;;13.60;99.90;;;;;;5056996;28;20446;-73
2021/09/03 04:19:46;;;;;;;11.60;10.40;;;13.50;99.90;;;;;;5057203;28;20971;-74
2021/09/03 04:22:12;;;;;;;11.83;10.60;;;13.50;99.90;;;;;;5044589;28;20234;-72
2021/09/03 04:24:37;;;;;;;16.00;10.53;;;13.50;99.90;;;;;;5058174;28;20182;-74
2021/09/03 04:27:04;;;;;;;11.70;10.20;;;13.40;99.90;;;;;;5036204;28;20187;-74
2021/09/03 04:29:29;;;;;;;11.23;10.00;;;13.40;99.90;;;;;;5032718;28;20266;-72
2021/09/03 04:31:56;;;;;;;12.13;10.43;;;13.40;99.90;;;;;;5034497;28;20551;-74
2021/09/03 04:34:21;;;;;;;10.40;9.37;;;13.30;99.90;;;;;;5036089;28;20667;-73
2021/09/03 04:36:50;;;;;;;11.37;10.17;;;13.40;99.90;;;;;;5053867;28;20448;-74
2021/09/03 04:39:15;;;;;;;11.40;9.97;;;13.50;99.90;;;;;;5055019;28;20217;-72
2021/09/03 04:41:41;;;;;;;11.33;10.17;;;13.50;99.90;;;;;;5053233;28;20444;-73
2021/09/03 04:44:08;;;;;;;18.40;10.80;;;13.50;99.90;;;;;;5035942;28;20206;-72
2021/09/03 04:46:33;;;;;;;13.00;11.10;;;13.40;99.90;;;;;;5052277;28;20293;-72
2021/09/03 04:48:59;;;;;;;11.57;10.17;;;13.40;99.90;;;;;;5053521;28;20570;-73
2021/09/03 04:51:26;;;;;;;16.00;11.57;;;13.40;99.90;;;;;;5034211;28;20935;-74
2021/09/03 04:53:52;;;;;;;11.83;10.00;;;13.40;99.90;;;;;;5026567;28;20202;-73
2021/09/03 04:56:18;;;;;;;13.73;11.10;;;13.50;99.90;;;;;;5045880;28;20498;-73
2021/09/03 04:58:44;;;;;;;12.33;10.10;;;13.50;99.90;;;;;;5052550;28;20711;-73
2021/09/03 05:01:10;;;;;;;10.60;9.50;;;13.50;99.90;;;;;;5035266;28;20469;-73
2021/09/03 05:03:40;;;;;;;16.17;10.50;;;13.40;99.90;;;;;;5052302;28;20998;-74
2021/09/03 05:06:10;;;;;;;11.30;9.67;;;13.40;99.90;;;;;;5036106;28;20197;-73
2021/09/03 05:08:36;;;;;;;14.00;10.80;;;13.40;99.90;;;;;;5052586;28;20529;-72
2021/09/03 05:11:02;;;;;;;12.17;10.53;;;13.40;99.90;;;;;;5036181;28;20432;-74
2021/09/03 05:13:28;;;;;;;10.73;9.63;;;13.50;99.90;;;;;;5053187;28;20659;-76
2021/09/03 05:15:54;;;;;;;11.43;10.27;;;13.50;99.90;;;;;;5035955;28;20663;-76
2021/09/03 05:18:19;;;;;;;12.47;10.20;;;13.40;99.90;;;;;;5037300;28;20447;-72
2021/09/03 05:20:45;;;;;;;11.20;9.97;;;13.40;99.90;;;;;;5053519;28;20224;-74
2021/09/03 05:23:10;;;;;;;11.50;10.40;;;13.30;99.90;;;;;;5035981;28;20414;-74
2021/09/03 05:25:36;;;;;;;11.87;10.70;;;13.40;99.90;;;;;;5054946;28;20615;-74
2021/09/03 05:28:01;;;;;;;11.50;9.80;;;13.40;99.90;;;;;;5054838;28;20252;-77
2021/09/03 05:30:27;;;;;;;11.87;10.10;;;13.40;99.90;;;;;;5027934;28;20268;-73
2021/09/03 05:32:54;;;;;;;11.83;10.60;;;13.50;99.90;;;;;;5036406;28;20182;-72
2021/09/03 05:35:23;;;;;;;10.70;9.60;;;13.50;99.90;;;;;;5054198;28;20186;-73
2021/09/03 05:37:49;;;;;;;10.77;9.60;;;13.60;99.90;;;;;;5035995;28;20427;-72
2021/09/03 05:40:15;;;;;;;15.70;10.83;;;13.60;99.90;;;;;;5054183;28;20519;-72
2021/09/03 05:42:41;;;;;;;11.33;10.20;;;13.60;99.90;;;;;;5054781;28;20702;-73
2021/09/03 05:45:07;;;;;;;10.73;9.33;;;13.60;99.90;;;;;;5054950;28;20447;-73
2021/09/03 05:47:33;;;;;;;15.47;11.27;;;13.70;99.90;;;;;;5054436;28;20169;-72
2021/09/03 05:49:58;;;;;;;12.03;10.83;;;13.70;99.90;;;;;;5053902;28;20528;-72
2021/09/03 05:52:24;;;;;;;12.57;10.97;;;13.70;99.90;;;;;;5054393;28;20535;-73
2021/09/03 05:54:50;;;;;;;13.10;10.80;;;13.80;99.90;;;;;;5054535;28;20296;-72
2021/09/03 05:57:15;;;;;;;11.53;10.33;;;13.80;99.90;;;;;;5036021;28;20507;-73
2021/09/03 05:59:41;;;;;;;13.10;11.63;;;13.80;99.90;;;;;;5053321;28;20427;-73
2021/09/03 06:02:06;;;;;;;12.30;11.10;;;13.90;99.90;;;;;;5036461;28;20671;-73
2021/09/03 06:04:32;;;;;;;11.87;10.70;;;13.90;99.90;;;;;;5054204;28;20419;-73
2021/09/03 06:06:57;;;;;;;13.03;11.23;;;14.00;99.90;;;;;;5054106;28;20256;-73
2021/09/03 06:09:23;;;;;;;12.50;11.13;;;14.00;99.90;;;;;;5035946;28;20554;-73
2021/09/03 06:11:51;;;;;;;11.77;10.67;;;14.00;99.90;;;;;;5053854;28;20201;-73
2021/09/03 06:14:16;;;;;;;13.43;11.70;;;14.10;99.90;;;;;;5054655;28;20239;-73
2021/09/03 06:16:42;;;;;;;14.87;12.67;;;14.10;99.90;;;;;;5056159;28;20396;-73
2021/09/03 06:19:07;;;;;;;13.87;12.50;;;14.10;99.90;;;;;;5054606;28;20261;-75
2021/09/03 06:21:33;;;;;;;16.33;12.17;;;14.20;99.90;;;;;;5053809;28;20201;-72
2021/09/03 06:23:58;;;;;;;12.23;11.03;;;14.20;99.90;;;;;;5054352;28;20220;-72
2021/09/03 06:26:24;;;;;;;13.07;11.57;;;14.20;99.90;;;;;;5054960;28;20291;-72
2021/09/03 06:28:49;;;;;;;13.20;11.00;;;14.30;99.90;;;;;;5050079;28;20232;-73
2021/09/03 06:31:15;;;;;;;14.10;12.50;;;14.30;99.90;;;;;;5055261;28;20528;-72
2021/09/03 06:33:41;;;;;;;13.80;12.30;;;14.30;99.90;;;;;;5036306;28;20769;-74
2021/09/03 06:36:06;;;;;;;12.70;11.40;;;14.40;99.90;;;;;;5052959;28;20197;-73
2021/09/03 06:38:32;;;;;;;15.07;12.33;;;14.50;99.90;;;;;;5054872;28;20193;-73
2021/09/03 06:40:59;;;;;;;13.43;12.13;;;14.50;99.90;;;;;;5053430;28;20579;-72
2021/09/03 06:43:24;;;;;;;15.47;13.00;;;14.60;99.90;;;;;;5049363;28;20178;-72
2021/09/03 06:45:57;;;;;;;20.23;12.70;;;14.60;99.90;;;;;;5047553;28;20476;-73
2021/09/03 06:48:26;;;;;;;17.27;15.40;;;14.70;99.90;;;;;;5045646;28;20216;-73
2021/09/03 06:50:58;;;;;;;14.30;12.80;;;14.80;99.90;;;;;;5033964;28;20472;-74
2021/09/03 06:53:26;;;;;;;14.87;13.27;;;14.80;99.90;;;;;;5032902;28;20526;-75
2021/09/03 06:55:56;;;;;;;23.00;14.17;;;14.90;99.90;;;;;;5030385;28;20575;-74
2021/09/03 06:58:27;;;;;;;14.10;11.80;;;15.00;99.90;;;;;;5052299;28;20452;-75
2021/09/03 07:01:09;;;;;;;15.60;13.53;;;15.00;99.90;;;;;;5051648;28;20452;-75
2021/09/03 07:03:34;;;;;;;16.30;12.37;;;15.10;99.90;;;;;;5049343;28;20448;-74
2021/09/03 07:06:00;;;;;;;15.00;12.50;;;15.20;99.90;;;;;;5041156;28;20440;-73
2021/09/03 07:08:26;;;;;;;14.57;13.03;;;15.20;99.90;;;;;;5050035;28;20793;-75
2021/09/03 07:10:51;;;;;;;17.80;12.70;;;15.30;99.90;;;;;;5043735;28;20449;-73
2021/09/03 07:13:17;;;;;;;15.20;13.20;;;15.40;99.90;;;;;;5039850;28;20500;-74
2021/09/03 07:15:42;;;;;;;14.13;12.50;;;15.50;99.90;;;;;;5048554;28;20458;-73
2021/09/03 07:18:09;;;;;;;15.80;11.93;;;15.50;99.90;;;;;;5020465;28;20214;-73
2021/09/03 07:20:35;;;;;;;15.43;12.00;;;15.60;99.90;;;;;;5043799;28;20202;-73
2021/09/03 07:23:01;;;;;;;16.87;12.77;;;15.70;99.90;;;;;;5027663;28;20823;-74
2021/09/03 07:25:27;;;;;;;15.17;12.80;;;15.80;99.90;;;;;;5032020;28;20957;-75
2021/09/03 07:27:53;;;;;;;14.27;12.77;;;15.90;99.90;;;;;;5047465;28;20535;-73
2021/09/03 07:30:18;;;;;;;17.50;14.97;;;16.00;99.90;;;;;;5031931;28;20579;-73
2021/09/03 07:32:47;;;;;;;14.43;12.93;;;16.10;99.90;;;;;;5051763;28;20249;-73
2021/09/03 07:35:14;;;;;;;16.73;13.70;;;16.20;99.90;;;;;;5052335;28;20548;-73
2021/09/03 07:37:41;;;;;;;15.70;13.77;;;16.30;99.90;;;;;;5032182;28;21035;-73
2021/09/03 07:40:08;;;;;;;16.00;14.30;;;16.30;99.90;;;;;;5045359;28;20445;-73
2021/09/03 07:42:33;;;;;;;15.20;13.63;;;16.40;99.90;;;;;;5033449;28;21378;-72
2021/09/03 07:45:00;;;;;;;18.00;13.67;;;16.50;99.90;;;;;;5027977;28;20432;-73
2021/09/03 07:47:26;;;;;;;14.77;13.17;;;16.50;99.90;;;;;;5052436;28;20194;-72
2021/09/03 07:49:52;;;;;;;15.40;13.80;;;16.60;99.90;;;;;;5035343;28;20490;-73
2021/09/03 07:52:17;;;;;;;14.70;11.83;;;16.70;99.90;;;;;;5052346;28;20408;-73
2021/09/03 07:54:44;;;;;;;16.20;12.43;;;16.80;99.90;;;;;;5034906;28;20182;-73
2021/09/03 07:57:10;;;;;;;14.23;12.43;;;16.90;99.90;;;;;;5050385;28;20206;-73
2021/09/03 07:59:36;;;;;;;15.07;12.47;;;17.00;99.90;;;;;;5041307;28;20516;-72
2021/09/03 08:02:02;;;;;;;14.60;12.03;;;17.10;99.90;;;;;;5051003;28;20532;-71
2021/09/03 08:04:27;;;;;;;12.67;11.37;;;17.20;99.90;;;;;;5053107;28;20546;-72
2021/09/03 08:06:53;;;;;;;14.73;13.03;;;17.30;99.90;;;;;;5052734;28;20220;-73
2021/09/03 08:09:18;;;;;;;12.90;11.70;;;17.40;99.90;;;;;;5034732;28;20236;-73
2021/09/03 08:11:44;;;;;;;14.83;12.67;;;17.40;99.90;;;;;;5052752;28;20245;-74
2021/09/03 08:14:10;;;;;;;16.23;12.67;;;17.50;99.90;;;;;;5046087;28;20284;-73
2021/09/03 08:16:35;;;;;;;13.80;11.87;;;17.60;99.90;;;;;;5038898;28;20316;-73
2021/09/03 08:19:03;;;;;;;13.43;12.00;;;17.70;99.90;;;;;;5045437;28;20240;-73
2021/09/03 08:21:30;;;;;;;15.00;10.93;;;17.80;99.90;;;;;;5052654;28;20202;-73
2021/09/03 08:23:55;;;;;;;13.73;11.70;;;18.00;99.90;;;;;;5052770;28;21235;-72
2021/09/03 08:26:21;;;;;;;15.53;10.90;;;18.10;99.90;;;;;;5052802;28;20448;-73
2021/09/03 08:28:47;;;;;;;15.53;11.30;;;18.20;99.90;;;;;;5034063;28;20201;-68
2021/09/03 08:31:12;;;;;;;12.73;11.43;;;18.30;99.90;;;;;;5053070;28;20289;-70
2021/09/03 08:33:38;;;;;;;14.13;10.73;;;18.50;99.90;;;;;;5052316;28;20178;-70
2021/09/03 08:36:03;;;;;;;12.73;10.07;;;18.70;99.90;;;;;;5051824;28;20253;-68
2021/09/03 08:38:29;;;;;;;14.13;12.70;;;18.90;99.90;;;;;;5053089;28;20218;-69
2021/09/03 08:40:57;;;;;;;15.70;12.07;;;19.20;99.90;;;;;;5054041;28;20289;-70
2021/09/03 08:43:23;;;;;;;12.23;11.03;;;19.30;99.90;;;;;;5052319;28;20178;-69
2021/09/03 08:45:49;;;;;;;12.33;11.13;;;19.50;99.90;;;;;;5052405;28;20443;-69
2021/09/03 08:48:19;;;;;;;15.80;11.90;;;19.70;99.90;;;;;;5053538;28;21046;-68
2021/09/03 08:50:46;;;;;;;11.40;10.30;;;19.80;99.90;;;;;;5052525;28;20441;-67
2021/09/03 08:53:17;;;;;;;10.00;9.00;;;20.00;99.90;;;;;;5051839;28;20451;-71
2021/09/03 08:55:44;;;;;;;11.27;10.20;;;20.10;99.90;;;;;;5034572;28;20570;-73
2021/09/03 08:58:10;;;;;;;10.30;9.30;;;20.20;99.90;;;;;;5050727;28;20428;-66
2021/09/03 09:00:36;;;;;;;10.07;8.30;;;20.40;99.90;;;;;;5033895;28;20448;-67
2021/09/03 09:03:14;;;;;;;8.00;7.30;;;20.50;99.90;;;;;;5046942;28;20456;-67
2021/09/03 09:06:00;;;;;;;8.50;7.60;;;20.60;99.90;;;;;;5044361;28;20185;-67
2021/09/03 09:08:28;;;;;;;8.97;7.67;;;20.80;99.90;;;;;;5039697;28;20472;-67
2021/09/03 09:11:05;;;;;;;8.53;7.67;;;20.90;99.90;;;;;;5047048;28;20449;-66
2021/09/03 09:13:37;;;;;;;9.43;8.53;;;21.10;99.90;;;;;;5029621;28;20453;-66
2021/09/03 09:16:17;;;;;;;8.13;7.33;;;21.20;99.90;;;;;;5050046;28;20436;-67
2021/09/03 09:18:48;;;;;;;8.13;7.33;;;21.30;99.90;;;;;;5051459;28;20415;-68
2021/09/03 09:21:18;;;;;;;7.47;6.77;;;21.40;99.90;;;;;;5051591;28;20513;-66
2021/09/03 09:23:47;;;;;;;8.37;7.57;;;21.50;99.90;;;;;;5052490;28;20541;-66
2021/09/03 09:26:15;;;;;;;8.87;7.97;;;21.60;99.90;;;;;;5052282;28;20420;-67
2021/09/03 09:28:41;;;;;;;8.50;7.70;;;21.60;99.90;;;;;;5051575;28;20443;-66
2021/09/03 09:31:06;;;;;;;7.93;7.23;;;21.70;99.90;;;;;;5052632;28;20194;-65
2021/09/03 09:33:32;;;;;;;9.47;8.50;;;21.70;99.90;;;;;;5051247;28;21258;-66
2021/09/03 09:36:00;;;;;;;8.23;7.53;;;21.80;99.90;;;;;;5052212;28;20178;-66
2021/09/03 09:38:35;;;;;;;8.50;7.70;;;21.80;99.90;;;;;;5052591;28;20511;-66
2021/09/03 09:41:03;;;;;;;8.60;7.73;;;21.90;99.90;;;;;;5052067;28;20432;-66
2021/09/03 09:43:36;;;;;;;7.83;6.87;;;21.90;99.90;;;;;;5052040;28;20539;-66
2021/09/03 09:46:07;;;;;;;8.20;7.40;;;21.90;99.90;;;;;;5052202;28;20524;-65
2021/09/03 09:48:34;;;;;;;7.83;7.13;;;22.00;99.90;;;;;;5051934;28;20452;-66
2021/09/03 09:50:59;;;;;;;7.27;6.53;;;22.10;99.90;;;;;;5052570;28;20466;-66
2021/09/03 09:53:28;;;;;;;6.70;6.20;;;22.20;99.90;;;;;;5052109;28;20431;-66
2021/09/03 09:55:53;;;;;;;7.53;6.83;;;22.30;99.90;;;;;;5033499;28;20812;-66
2021/09/03 09:58:20;;;;;;;7.03;6.43;;;22.40;99.90;;;;;;5052519;28;20420;-66
2021/09/03 10:00:46;;;;;;;7.30;6.60;;;22.50;99.90;;;;;;5052654;28;20715;-65
2021/09/03 10:03:12;;;;;;;7.90;7.10;;;22.60;99.90;;;;;;5050721;28;20421;-66
2021/09/03 10:05:39;;;;;;;6.73;5.80;;;22.60;98.40;;;;;;5052073;28;20404;-67
2021/09/03 10:08:07;;;;;;;9.47;6.63;;;22.70;99.10;;;;;;5052100;28;20443;-67
2021/09/03 10:10:32;;;;;;;6.27;5.67;;;22.80;99.40;;;;;;5052449;28;20449;-67
2021/09/03 10:12:58;;;;;;;6.60;6.00;;;22.90;98.60;;;;;;5052615;28;20433;-67
2021/09/03 10:15:24;;;;;;;6.83;6.13;;;22.90;98.40;;;;;;5052416;28;20178;-67
2021/09/03 10:17:50;;;;;;;6.07;5.57;;;23.00;98.20;;;;;;5053113;28;20178;-67
2021/09/03 10:20:16;;;;;;;6.87;6.20;;;23.00;97.70;;;;;;5051493;28;20216;-67
2021/09/03 10:22:44;;;;;;;8.70;6.20;;;23.00;98.10;;;;;;5043996;28;20503;-67
2021/09/03 10:25:11;;;;;;;7.00;6.43;;;22.90;96.50;;;;;;5034254;28;20667;-66
2021/09/03 10:27:38;;;;;;;6.87;6.27;;;22.90;96.20;;;;;;5050662;28;20490;-67
2021/09/03 10:30:15;;;;;;;7.70;7.00;;;23.00;97.00;;;;;;5050927;28;20475;-66
2021/09/03 10:32:41;;;;;;;7.23;6.53;;;23.00;97.00;;;;;;5052084;28;20874;-67
2021/09/03 10:35:34;;;;;;;7.37;6.50;;;23.00;97.60;;;;;;5052207;28;20501;-67
2021/09/03 10:37:59;;;;;;;6.80;6.20;;;23.00;98.10;;;;;;5052474;28;20216;-67
2021/09/03 10:40:28;;;;;;;6.67;6.17;;;23.00;98.20;;;;;;5051586;28;20863;-66
2021/09/03 10:42:56;;;;;;;7.03;5.90;;;23.00;98.40;;;;;;5051113;28;20182;-66
2021/09/03 10:45:24;;;;;;;7.30;6.60;;;22.80;98.00;;;;;;5050975;28;20890;-66
2021/09/03 10:47:55;;;;;;;6.70;6.17;;;22.80;98.40;;;;;;5051120;28;20913;-66
2021/09/03 10:50:51;;;;;;;7.17;6.57;;;22.80;98.50;;;;;;5048871;28;20475;-66
2021/09/03 10:53:18;;;;;;;9.60;6.77;;;22.80;98.50;;;;;;5050125;28;20432;-66
2021/09/03 10:56:09;;;;;;;9.10;6.70;;;22.70;98.50;;;;;;5050081;28;20417;-65
2021/09/03 10:58:37;;;;;;;8.37;7.57;;;22.50;98.30;;;;;;5050216;28;20412;-66
2021/09/03 11:01:12;;;;;;;7.27;6.53;;;22.50;97.40;;;;;;5032427;28;20444;-66
2021/09/03 11:03:50;;;;;;;7.83;6.10;;;22.60;98.20;;;;;;5049409;28;21882;-66
2021/09/03 11:06:25;;;;;;;7.17;6.20;;;22.70;98.30;;;;;;5050428;28;20781;-66
2021/09/03 11:08:52;;;;;;;6.80;6.20;;;22.80;98.50;;;;;;5049709;28;20498;-68
2021/09/03 11:11:25;;;;;;;7.90;7.10;;;22.80;98.60;;;;;;5031847;28;20452;-65
2021/09/03 11:13:55;;;;;;;7.67;7.00;;;22.90;98.70;;;;;;5027914;28;20473;-75
2021/09/03 11:16:38;;;;;;;8.07;7.30;;;22.90;97.70;;;;;;5030188;28;20452;-72
2021/09/03 11:19:10;;;;;;;9.23;8.20;;;23.00;98.00;;;;;;5043757;28;20823;-75
2021/09/03 11:21:38;;;;;;;7.50;6.80;;;23.10;97.70;;;;;;5050192;28;20462;-73
2021/09/03 11:24:06;;;;;;;9.60;7.83;;;23.30;97.30;;;;;;5043924;28;20464;-73
2021/09/03 11:26:34;;;;;;;8.00;7.20;;;23.40;96.50;;;;;;5046675;28;20464;-72
2021/09/03 11:29:05;;;;;;;7.70;7.00;;;23.50;96.80;;;;;;5043887;28;20487;-74
2021/09/03 11:31:36;;;;;;;7.80;7.07;;;23.50;96.60;;;;;;5044157;28;20478;-74
2021/09/03 11:34:06;;;;;;;6.93;6.33;;;23.70;95.90;;;;;;5035509;28;20829;-74
2021/09/03 11:36:47;;;;;;;6.90;6.33;;;23.70;96.00;;;;;;5040626;28;20487;-72
2021/09/03 11:39:16;;;;;;;8.10;7.30;;;23.70;95.80;;;;;;5042881;28;20431;-73
2021/09/03 11:41:51;;;;;;;7.43;6.73;;;23.80;95.70;;;;;;5013686;28;20203;-73
2021/09/03 11:44:17;;;;;;;7.20;6.50;;;23.80;95.70;;;;;;5041492;28;20471;-71
2021/09/03 11:46:48;;;;;;;7.60;6.90;;;23.70;95.20;;;;;;5045166;28;20453;-74
2021/09/03 11:49:21;;;;;;;7.20;6.50;;;23.70;95.40;;;;;;5037579;28;20577;-73
2021/09/03 11:51:47;;;;;;;7.50;6.80;;;23.70;95.80;;;;;;5043561;28;20528;-74
2021/09/03 11:54:15;;;;;;;9.03;6.70;;;23.70;95.80;;;;;;5047656;28;20484;-73
2021/09/03 11:56:41;;;;;;;7.67;6.87;;;23.70;96.00;;;;;;5021331;28;20530;-74
2021/09/03 11:59:07;;;;;;;8.30;7.60;;;23.70;95.80;;;;;;5048871;28;20570;-74
2021/09/03 12:01:34;;;;;;;8.83;6.87;;;23.70;95.60;;;;;;5051807;28;20205;-73
2021/09/03 12:04:08;;;;;;;7.60;7.00;;;23.60;95.10;;;;;;5034754;28;20476;-73
2021/09/03 12:06:36;;;;;;;6.90;6.30;;;23.60;95.30;;;;;;5053528;28;20405;-75
2021/09/03 12:09:02;;;;;;;6.67;6.13;;;23.50;95.40;;;;;;5034406;28;20505;-75
2021/09/03 12:11:34;;;;;;;8.20;7.40;;;23.50;95.30;;;;;;5053105;28;20530;-75
2021/09/03 12:14:00;;;;;;;12.93;6.90;;;23.50;95.30;;;;;;5054240;28;20429;-74
2021/09/03 12:16:31;;;;;;;7.90;7.03;;;23.40;95.20;;;;;;5056539;28;20448;-73
2021/09/03 12:18:59;;;;;;;6.83;6.23;;;23.30;95.20;;;;;;5057205;28;20424;-74
2021/09/03 12:21:28;;;;;;;7.60;6.97;;;23.40;95.60;;;;;;5056967;28;20992;-75
2021/09/03 12:23:54;;;;;;;7.77;6.97;;;23.40;95.70;;;;;;5060078;28;20488;-74
2021/09/03 12:26:50;;;;;;;7.40;6.50;;;23.40;95.70;;;;;;5059841;28;20456;-74
2021/09/03 12:29:18;;;;;;;7.07;6.47;;;23.40;95.50;;;;;;5046842;28;20214;-74
2021/09/03 12:31:55;;;;;;;6.93;6.43;;;23.40;95.00;;;;;;5055437;28;20439;-75
2021/09/03 12:34:30;;;;;;;7.03;6.43;;;23.30;94.90;;;;;;5052979;28;20412;-72